createdAt,value
2022-10-17T00:01:13.986Z,88.00
2022-10-17T00:06:17.347Z,87.70
2022-10-17T00:11:23.278Z,88.90
2022-10-17T00:16:27.985Z,89.30
2022-10-17T00:21:30.949Z,88.20
2022-10-17T00:26:35.332Z,88.30
2022-10-17T00:31:38.397Z,88.70
2022-10-17T00:36:41.459Z,89.10
2022-10-17T00:41:45.757Z,88.90
2022-10-17T00:46:48.692Z,90.10
2022-10-17T00:51:55.037Z,89.70
2022-10-17T00:56:59.511Z,88.90
2022-10-17T01:02:05.297Z,89.60
2022-10-17T01:07:08.233Z,89.20
2022-10-17T01:12:17.853Z,88.70
2022-10-17T01:17:28.501Z,89.70
2022-10-17T01:22:38.493Z,90.20
2022-10-17T01:27:57.772Z,90.20
2022-10-17T01:33:09.910Z,89.60
2022-10-17T01:38:16.494Z,90.60
2022-10-17T01:43:25.281Z,90.30
2022-10-17T01:48:32.841Z,89.20
2022-10-17T01:53:40.425Z,89.00
2022-10-17T01:58:50.136Z,88.60
2022-10-17T02:03:55.622Z,89.20
2022-10-17T02:08:58.560Z,88.70
2022-10-17T02:14:20.550Z,88.20
2022-10-17T02:19:42.769Z,88.20
2022-10-17T02:24:51.008Z,88.40
2022-10-17T02:29:59.565Z,88.40
2022-10-17T02:35:06.503Z,88.50
2022-10-17T02:40:10.829Z,90.00
2022-10-17T02:45:16.070Z,90.00
2022-10-17T02:55:44.648Z,89.20
2022-10-17T03:00:47.769Z,89.70
2022-10-17T03:05:52.411Z,90.90
2022-10-17T03:10:55.329Z,89.50
2022-10-17T03:15:58.446Z,89.00
2022-10-17T03:21:02.734Z,89.00
2022-10-17T03:26:05.962Z,89.20
2022-10-17T03:31:09.900Z,89.50
2022-10-17T03:36:17.041Z,89.50
2022-10-17T03:41:19.979Z,89.40
2022-10-17T03:46:22.946Z,88.80
2022-10-17T03:51:27.336Z,89.00
2022-10-17T03:56:30.346Z,89.20
2022-10-17T04:01:33.435Z,89.10
2022-10-17T04:06:38.720Z,89.30
2022-10-17T04:11:41.768Z,89.10
2022-10-17T04:16:44.753Z,89.00
2022-10-17T04:21:49.530Z,88.60
2022-10-17T04:26:52.850Z,88.40
2022-10-17T04:31:56.083Z,88.70
2022-10-17T04:37:00.451Z,89.30
2022-10-17T04:42:03.359Z,93.00
2022-10-17T04:47:06.286Z,94.30
2022-10-17T04:52:10.578Z,93.20
2022-10-17T04:57:13.532Z,91.70
2022-10-17T05:02:16.570Z,92.20
2022-10-17T05:07:20.872Z,90.50
2022-10-17T05:12:23.953Z,89.60
2022-10-17T05:17:26.988Z,90.80
2022-10-17T05:22:31.495Z,89.80
2022-10-17T05:27:34.624Z,89.20
2022-10-17T05:32:37.983Z,89.90
2022-10-17T05:37:42.544Z,92.80
2022-10-17T05:42:48.580Z,92.50
2022-10-17T05:47:51.976Z,92.50
2022-10-17T05:52:56.476Z,91.10
2022-10-17T05:58:01.398Z,91.50
2022-10-17T06:03:04.411Z,90.10
2022-10-17T06:08:08.729Z,90.00
2022-10-17T06:13:11.663Z,92.00
2022-10-17T06:18:14.613Z,92.10
2022-10-17T06:23:18.979Z,92.40
2022-10-17T06:28:21.974Z,93.70
2022-10-17T06:33:25.032Z,92.50
2022-10-17T06:38:29.341Z,93.00
2022-10-17T06:43:32.264Z,93.80
2022-10-17T06:48:35.410Z,94.10
2022-10-17T06:53:41.178Z,94.50
2022-10-17T06:58:44.347Z,93.00
2022-10-17T07:03:49.680Z,93.70
2022-10-17T07:08:55.680Z,94.00
2022-10-17T07:13:58.643Z,94.40
2022-10-17T07:19:01.637Z,94.20
2022-10-17T07:24:07.188Z,94.10
2022-10-17T07:29:11.108Z,94.30
2022-10-17T07:34:14.078Z,94.20
2022-10-17T07:39:18.430Z,94.40
2022-10-17T07:44:21.609Z,94.10
2022-10-17T07:49:24.594Z,94.10
2022-10-17T07:54:28.868Z,93.70
2022-10-17T07:59:31.908Z,93.30
2022-10-17T08:04:36.340Z,93.00
2022-10-17T08:09:40.639Z,92.60
2022-10-17T08:14:43.901Z,92.50
2022-10-17T08:19:46.887Z,92.10
2022-10-17T08:24:51.173Z,92.00
2022-10-17T08:29:54.226Z,92.80
2022-10-17T08:34:57.491Z,93.30
2022-10-17T08:40:01.800Z,93.30
2022-10-17T08:45:14.730Z,93.40
2022-10-17T08:50:25.025Z,92.70
2022-10-17T08:55:37.018Z,92.60
2022-10-17T09:00:47.295Z,92.30
2022-10-17T09:05:54.733Z,92.40
2022-10-17T09:11:05.041Z,92.50
2022-10-17T09:16:33.938Z,91.50
2022-10-17T09:21:43.902Z,91.10
2022-10-17T09:26:48.274Z,90.80
2022-10-17T09:32:00.285Z,90.00
2022-10-17T09:37:03.982Z,88.70
2022-10-17T09:42:11.178Z,87.30
2022-10-17T09:47:24.471Z,86.50
2022-10-17T09:52:31.679Z,85.90
2022-10-17T09:57:55.634Z,85.20
2022-10-17T10:03:11.251Z,83.90
2022-10-17T10:08:16.500Z,81.30
2022-10-17T10:13:21.421Z,81.20
2022-10-17T10:18:33.980Z,78.90
2022-10-17T10:23:40.833Z,78.90
2022-10-17T10:28:54.772Z,76.90
2022-10-17T10:33:58.218Z,77.40
2022-10-17T10:39:03.898Z,74.70
2022-10-17T10:44:16.334Z,73.20
2022-10-17T10:49:30.978Z,72.10
2022-10-17T10:59:59.811Z,69.60
2022-10-17T11:05:05.713Z,69.80
2022-10-17T11:10:16.162Z,67.70
2022-10-17T11:15:26.578Z,66.70
2022-10-17T11:20:37.729Z,65.10
2022-10-17T11:25:42.704Z,66.80
2022-10-17T11:30:51.327Z,64.50
2022-10-17T11:35:59.169Z,64.60
2022-10-17T11:41:03.040Z,64.20
2022-10-17T11:46:15.797Z,63.20
2022-10-17T11:56:47.844Z,63.80
2022-10-17T12:01:55.790Z,63.00
2022-10-17T12:07:09.246Z,63.60
2022-10-17T12:12:12.239Z,62.80
2022-10-17T12:17:30.668Z,62.80
2022-10-17T12:22:34.962Z,64.00
2022-10-17T12:27:42.367Z,63.00
2022-10-17T12:33:07.047Z,63.50
2022-10-17T12:38:25.310Z,63.30
2022-10-17T12:43:58.185Z,64.30
2022-10-17T12:49:22.868Z,63.60
2022-10-17T12:54:26.097Z,62.20
2022-10-17T12:59:30.513Z,62.40
2022-10-17T13:04:38.149Z,61.30
2022-10-17T13:09:45.430Z,59.90
2022-10-17T13:14:48.981Z,60.30
2022-10-17T13:19:53.776Z,60.00
2022-10-17T13:25:08.260Z,60.00
2022-10-17T13:30:29.402Z,59.00
2022-10-17T13:41:30.084Z,59.90
2022-10-17T13:46:38.076Z,59.60
2022-10-17T13:51:46.641Z,59.20
2022-10-17T13:56:57.335Z,59.30
2022-10-17T14:02:01.654Z,58.80
2022-10-17T14:07:07.351Z,60.70
2022-10-17T14:12:12.788Z,60.30
2022-10-17T14:17:16.353Z,59.90
2022-10-17T14:22:28.611Z,60.10
2022-10-17T14:27:34.729Z,60.10
2022-10-17T14:32:38.958Z,59.20
2022-10-17T14:37:46.465Z,60.20
2022-10-17T14:42:50.111Z,59.60
2022-10-17T14:47:55.241Z,60.20
2022-10-17T14:53:06.376Z,59.40
2022-10-17T14:58:20.013Z,61.50
2022-10-17T15:03:23.549Z,60.30
2022-10-17T15:08:27.878Z,60.20
2022-10-17T15:13:35.008Z,62.50
2022-10-17T15:18:41.628Z,61.20
2022-10-17T15:23:46.030Z,61.90
2022-10-17T15:28:50.466Z,62.90
2022-10-17T15:33:54.038Z,65.40
2022-10-17T15:39:00.082Z,65.80
2022-10-17T15:44:03.008Z,67.20
2022-10-17T15:49:11.265Z,67.30
2022-10-17T15:54:15.724Z,67.90
2022-10-17T15:59:22.960Z,69.00
2022-10-17T16:04:27.450Z,70.00
2022-10-17T16:09:31.774Z,71.10
2022-10-17T16:14:35.708Z,70.60
2022-10-17T16:19:38.685Z,71.00
2022-10-17T16:24:42.963Z,72.60
2022-10-17T16:29:45.901Z,73.40
2022-10-17T16:34:48.876Z,74.10
2022-10-17T16:39:53.648Z,75.40
2022-10-17T16:44:56.594Z,76.10
2022-10-17T16:49:59.607Z,75.80
2022-10-17T16:55:04.034Z,75.60
2022-10-17T17:00:08.553Z,76.20
2022-10-17T17:05:12.048Z,77.20
2022-10-17T17:10:16.717Z,77.50
2022-10-17T17:15:19.768Z,76.20
2022-10-17T17:20:22.954Z,77.90
2022-10-17T17:25:27.365Z,78.60
2022-10-17T17:30:30.662Z,79.50
2022-10-17T17:35:33.602Z,78.80
2022-10-17T17:40:37.951Z,79.80
2022-10-17T17:45:40.923Z,80.40
2022-10-17T17:50:44.578Z,80.00
2022-10-17T17:55:49.668Z,80.00
2022-10-17T18:00:52.635Z,79.10
2022-10-17T18:05:55.974Z,79.80
2022-10-17T18:11:00.324Z,80.90
2022-10-17T18:16:04.241Z,81.30
2022-10-17T18:21:07.379Z,82.70
2022-10-17T18:26:12.220Z,83.20
2022-10-17T18:31:18.953Z,83.50
2022-10-17T18:36:22.737Z,84.60
2022-10-17T18:41:28.256Z,84.50
2022-10-17T18:46:35.524Z,84.60
2022-10-17T18:51:38.831Z,84.80
2022-10-17T18:56:43.120Z,83.50
2022-10-17T19:01:46.133Z,82.80
2022-10-17T19:06:49.135Z,83.20
2022-10-17T19:11:53.541Z,83.50
2022-10-17T19:16:57.204Z,82.70
2022-10-17T19:22:01.645Z,83.80
2022-10-17T19:27:06.885Z,84.20
2022-10-17T19:32:15.562Z,83.80
2022-10-17T19:37:20.965Z,85.70
2022-10-17T19:42:25.268Z,86.80
2022-10-17T19:47:28.225Z,85.30
2022-10-17T19:52:31.566Z,85.80
2022-10-17T19:57:36.476Z,85.70
2022-10-17T20:02:39.428Z,86.00
2022-10-17T20:07:42.605Z,86.70
2022-10-17T20:12:47.007Z,87.50
2022-10-17T20:17:50.636Z,87.10
2022-10-17T20:22:53.661Z,86.50
2022-10-17T20:27:57.989Z,86.70
2022-10-17T20:33:00.938Z,87.60
2022-10-17T20:38:03.858Z,87.30
2022-10-17T20:43:09.604Z,88.20
2022-10-17T20:48:15.322Z,87.60
2022-10-17T20:58:43.965Z,87.60
2022-10-17T21:03:47.019Z,86.10
2022-10-17T21:08:50.505Z,86.40
2022-10-17T21:13:58.225Z,86.30
2022-10-17T21:19:01.473Z,86.00
2022-10-17T21:24:06.986Z,86.50
2022-10-17T21:29:13.135Z,87.40
2022-10-17T21:34:18.877Z,87.30
2022-10-17T21:39:24.083Z,87.30
2022-10-17T21:44:29.038Z,88.30
2022-10-17T21:49:31.998Z,87.70
2022-10-17T21:54:34.970Z,87.20
2022-10-17T21:59:39.913Z,87.30
2022-10-17T22:04:42.830Z,88.00
2022-10-17T22:09:45.757Z,87.60
2022-10-17T22:14:50.037Z,87.80
2022-10-17T22:19:52.979Z,89.00
2022-10-17T22:24:55.895Z,88.90
2022-10-17T22:30:00.192Z,90.80
2022-10-17T22:35:03.126Z,90.60
2022-10-17T22:40:07.235Z,90.60
2022-10-17T22:45:11.882Z,90.60
2022-10-17T22:50:14.980Z,90.50
2022-10-17T22:55:18.128Z,89.70
2022-10-17T23:00:22.526Z,89.30
2022-10-17T23:05:25.485Z,90.30
2022-10-17T23:10:28.418Z,90.30
2022-10-17T23:15:33.223Z,90.10
2022-10-17T23:20:36.529Z,89.70
2022-10-17T23:25:39.470Z,89.50
2022-10-17T23:30:43.993Z,89.60
2022-10-17T23:35:46.930Z,89.30
2022-10-17T23:40:49.866Z,89.70
2022-10-17T23:45:54.140Z,89.20
2022-10-17T23:50:57.333Z,89.50
2022-10-17T23:56:00.377Z,89.50
